Time;durP1;ratioP1;P1;durP2;ratioP2;P2;SDS_P1;SDS_P2;PMS_P1;PMS_P2;Temp;Humidity;BMP_temperature;BMP_pressure;BME280_temperature;BME280_humidity;BME280_pressure;Samples;Min_cycle;Max_cycle;Signal;HPM_P1;HPM_P2
2021/12/17 00:05:43;;;;;;;58.45;34.80;;;;;;;;;;6207209;28;20060;-65
2021/12/17 00:08:49;;;;;;;59.25;36.28;;;;;;;;;;6224848;28;20049;-65
2021/12/17 00:11:50;;;;;;;55.40;34.95;;;;;;;;;;6216205;28;20121;-65
2021/12/17 00:14:52;;;;;;;61.50;36.95;;;;;;;;;;6221442;28;20056;-65
2021/12/17 00:18:00;;;;;;;61.78;35.78;;;;;;;;;;6208550;28;20121;-65
2021/12/17 00:51:21;;;;;;;56.40;34.90;;;;;;;;;;6206479;28;20081;-65
2021/12/17 00:54:31;;;;;;;56.90;36.10;;;;;;;;;;6222980;28;20049;-65
2021/12/17 00:57:40;;;;;;;59.70;35.30;;;;;;;;;;6217505;28;20057;-65
2021/12/17 01:00:41;;;;;;;65.00;35.65;;;;;;;;;;6205740;28;20038;-65
2021/12/17 01:03:43;;;;;;;54.72;34.95;;;;;;;;;;6215640;28;20561;-65
2021/12/17 01:06:44;;;;;;;57.13;35.05;;;;;;;;;;6221966;28;20134;-65
2021/12/17 01:09:48;;;;;;;57.67;33.85;;;;;;;;;;6232948;28;20529;-65
2021/12/17 01:12:51;;;;;;;56.28;32.95;;;;;;;;;;6213539;28;20292;-65
2021/12/17 01:15:53;;;;;;;59.00;34.15;;;;;;;;;;6211361;28;20094;-65
2021/12/17 01:19:04;;;;;;;60.28;34.35;;;;;;;;;;6221257;28;20049;-65
2021/12/17 01:22:29;;;;;;;55.70;34.35;;;;;;;;;;6211468;28;20041;-65
2021/12/17 01:25:46;;;;;;;57.92;35.53;;;;;;;;;;6210454;28;20199;-65
2021/12/17 01:35:30;;;;;;;58.22;34.75;;;;;;;;;;6215329;28;20041;-65
2021/12/17 01:42:02;;;;;;;59.65;37.35;;;;;;;;;;6217475;28;20048;-65
2021/12/17 01:45:06;;;;;;;60.42;37.58;;;;;;;;;;6232871;28;20129;-65
2021/12/17 01:48:11;;;;;;;;;;;;;;;;;;6212757;28;20073;-65
2021/12/17 02:01:23;;;;;;;64.72;40.63;;;;;;;;;;6211090;28;20049;-65
2021/12/17 02:04:24;;;;;;;63.78;38.25;;;;;;;;;;6219328;28;20107;-65
2021/12/17 02:07:26;;;;;;;66.70;42.42;;;;;;;;;;6208378;28;20045;-65
2021/12/17 02:34:09;;;;;;;72.25;41.75;;;;;;;;;;6224146;28;20049;-64
2021/12/17 02:37:16;;;;;;;79.63;44.15;;;;;;;;;;6216582;28;20146;-65
2021/12/17 02:46:53;;;;;;;74.50;41.00;;;;;;;;;;6209834;28;20136;-65
2021/12/17 02:49:55;;;;;;;79.25;43.47;;;;;;;;;;6225007;28;20084;-65
2021/12/17 02:53:01;;;;;;;85.32;43.92;;;;;;;;;;6219000;28;20050;-65
2021/12/17 02:56:06;;;;;;;82.13;43.42;;;;;;;;;;6217218;28;20056;-64
2021/12/17 02:59:10;;;;;;;85.25;43.78;;;;;;;;;;6233750;28;20180;-64
2021/12/17 03:02:11;;;;;;;;;;;;;;;;;;6217700;28;20038;-65
2021/12/17 03:05:13;;;;;;;79.50;42.10;;;;;;;;;;6223330;28;20052;-65
2021/12/17 03:08:17;;;;;;;84.93;42.53;;;;;;;;;;6224555;28;20143;-64
2021/12/17 03:11:18;;;;;;;86.55;43.47;;;;;;;;;;6220447;28;20045;-64
2021/12/17 03:14:20;;;;;;;84.38;43.53;;;;;;;;;;6229151;28;20402;-64
2021/12/17 03:17:39;;;;;;;86.18;45.63;;;;;;;;;;6211111;28;20401;-65
2021/12/17 03:24:06;;;;;;;81.13;44.45;;;;;;;;;;6222963;28;20460;-64
2021/12/17 03:27:07;;;;;;;81.57;44.45;;;;;;;;;;6218298;28;20103;-65
2021/12/17 03:30:11;;;;;;;83.15;42.90;;;;;;;;;;6226439;28;20071;-65
2021/12/17 03:33:12;;;;;;;89.00;44.20;;;;;;;;;;6223531;28;20128;-64
2021/12/17 03:36:16;;;;;;;90.30;45.17;;;;;;;;;;6216608;28;20116;-65
2021/12/17 03:39:19;;;;;;;80.13;44.97;;;;;;;;;;6224892;28;20054;-64
2021/12/17 03:42:20;;;;;;;104.95;48.67;;;;;;;;;;6222177;28;20131;-65
2021/12/17 03:45:22;;;;;;;89.22;46.60;;;;;;;;;;6220277;28;20062;-65
2021/12/17 03:48:24;;;;;;;91.93;45.95;;;;;;;;;;6225253;28;20049;-64
2021/12/17 03:51:26;;;;;;;99.10;49.20;;;;;;;;;;6212658;28;20038;-64
2021/12/17 03:54:29;;;;;;;92.50;46.65;;;;;;;;;;6229557;28;20518;-65
2021/12/17 03:57:31;;;;;;;100.50;47.95;;;;;;;;;;6217527;28;20128;-65
2021/12/17 04:00:34;;;;;;;99.90;47.05;;;;;;;;;;6226327;28;20045;-65
2021/12/17 04:03:36;;;;;;;85.10;44.17;;;;;;;;;;6220261;28;20136;-64
2021/12/17 04:06:39;;;;;;;94.38;45.10;;;;;;;;;;6222981;28;20127;-66
2021/12/17 04:09:42;;;;;;;96.45;46.97;;;;;;;;;;6227403;28;20042;-65
2021/12/17 04:12:51;;;;;;;86.28;42.45;;;;;;;;;;6221028;28;20118;-65
2021/12/17 04:15:57;;;;;;;89.05;42.13;;;;;;;;;;6217992;28;20049;-65
2021/12/17 04:18:59;;;;;;;90.68;43.13;;;;;;;;;;6225661;28;20401;-65
2021/12/17 04:22:01;;;;;;;89.60;44.60;;;;;;;;;;6220009;28;20052;-64
2021/12/17 04:25:04;;;;;;;87.53;44.13;;;;;;;;;;6233704;28;20103;-65
2021/12/17 04:28:06;;;;;;;80.43;44.20;;;;;;;;;;6226579;28;20048;-64
2021/12/17 04:31:08;;;;;;;72.47;39.05;;;;;;;;;;6223868;28;20045;-64
2021/12/17 04:34:12;;;;;;;69.28;38.53;;;;;;;;;;6224641;28;20091;-65
2021/12/17 04:37:13;;;;;;;67.63;39.78;;;;;;;;;;6218732;28;20041;-64
2021/12/17 04:40:18;;;;;;;74.65;40.63;;;;;;;;;;6222429;28;20556;-64
2021/12/17 04:43:33;;;;;;;72.60;41.20;;;;;;;;;;6221952;28;21476;-68
2021/12/17 04:46:39;;;;;;;72.07;40.60;;;;;;;;;;6217492;28;20477;-65
2021/12/17 04:59:39;;;;;;;68.45;40.00;;;;;;;;;;6233471;28;20053;-65
2021/12/17 05:02:44;;;;;;;78.63;41.70;;;;;;;;;;6220527;28;20088;-65
2021/12/17 05:05:46;;;;;;;78.47;41.92;;;;;;;;;;6222102;28;20520;-65
2021/12/17 05:08:55;;;;;;;85.75;42.47;;;;;;;;;;6234266;28;20045;-64
2021/12/17 05:18:44;;;;;;;83.50;41.97;;;;;;;;;;6222539;28;20045;-66
2021/12/17 05:21:45;;;;;;;86.78;43.17;;;;;;;;;;6209221;28;20050;-65
2021/12/17 05:24:47;;;;;;;82.18;43.55;;;;;;;;;;6231972;28;20148;-66
2021/12/17 05:27:50;;;;;;;86.78;44.75;;;;;;;;;;6218830;28;20102;-65
2021/12/17 05:30:53;;;;;;;87.75;43.72;;;;;;;;;;6214479;28;20041;-65
2021/12/17 05:33:56;;;;;;;89.88;43.65;;;;;;;;;;6224346;28;20041;-65
2021/12/17 05:36:58;;;;;;;89.50;42.10;;;;;;;;;;6216540;28;20064;-65
2021/12/17 05:39:59;;;;;;;87.70;43.28;;;;;;;;;;6230695;28;20060;-65
2021/12/17 05:43:05;;;;;;;96.63;46.55;;;;;;;;;;6213296;28;20124;-65
2021/12/17 05:46:12;;;;;;;94.88;46.00;;;;;;;;;;6217826;28;20053;-65
2021/12/17 05:49:14;;;;;;;93.28;44.40;;;;;;;;;;6225748;28;20348;-65
2021/12/17 05:52:15;;;;;;;93.15;45.67;;;;;;;;;;6217863;28;20041;-65
2021/12/17 05:55:17;;;;;;;102.07;46.13;;;;;;;;;;6219197;28;20091;-65
2021/12/17 05:58:20;;;;;;;102.07;48.50;;;;;;;;;;6228927;28;20150;-65
2021/12/17 06:01:22;;;;;;;107.00;46.65;;;;;;;;;;6216348;28;20913;-65
2021/12/17 06:04:23;;;;;;;93.15;42.65;;;;;;;;;;6230959;28;20131;-65
2021/12/17 06:07:26;;;;;;;100.57;45.55;;;;;;;;;;6222676;28;20092;-65
2021/12/17 06:10:28;;;;;;;103.55;44.88;;;;;;;;;;6218820;28;20038;-65
2021/12/17 06:13:31;;;;;;;95.32;42.33;;;;;;;;;;6230736;28;20180;-65
2021/12/17 06:16:34;;;;;;;100.43;46.75;;;;;;;;;;6220965;28;20072;-65
2021/12/17 06:19:35;;;;;;;97.22;43.17;;;;;;;;;;6229453;28;20394;-65
2021/12/17 06:22:37;;;;;;;98.70;45.60;;;;;;;;;;6223349;28;20100;-67
2021/12/17 06:25:39;;;;;;;100.03;44.67;;;;;;;;;;6227846;28;20133;-64
2021/12/17 06:28:42;;;;;;;94.13;45.08;;;;;;;;;;6249518;28;20142;-64
2021/12/17 06:31:43;;;;;;;99.82;45.55;;;;;;;;;;6220419;28;20466;-64
2021/12/17 06:34:45;;;;;;;92.25;41.17;;;;;;;;;;6232422;28;20051;-65
2021/12/17 06:37:47;;;;;;;84.90;39.80;;;;;;;;;;6215658;28;20091;-65
2021/12/17 06:40:53;;;;;;;100.25;44.28;;;;;;;;;;6218240;28;20080;-65
2021/12/17 06:43:57;;;;;;;98.85;44.78;;;;;;;;;;6231268;28;20053;-65
2021/12/17 06:47:03;;;;;;;92.13;41.47;;;;;;;;;;6212856;28;20688;-64
2021/12/17 06:57:40;;;;;;;88.80;42.92;;;;;;;;;;6211446;28;20432;-66
2021/12/17 07:00:37;;;;;;;86.47;41.03;;;;;;;;;;6221330;28;20041;-65
2021/12/17 07:07:43;;;;;;;86.95;41.00;;;;;;;;;;6212796;28;20053;-65
2021/12/17 07:10:37;;;;;;;91.80;41.70;;;;;;;;;;6218890;28;20730;-65
2021/12/17 07:17:20;;;;;;;86.13;43.03;;;;;;;;;;6214589;28;20581;-65
2021/12/17 07:34:03;;;;;;;89.50;40.88;;;;;;;;;;6220284;28;20465;-64
2021/12/17 07:40:20;;;;;;;90.03;40.30;;;;;;;;;;6217541;28;20037;-65
2021/12/17 07:43:35;;;;;;;104.10;43.42;;;;;;;;;;6224454;28;20056;-65
2021/12/17 07:46:36;;;;;;;92.97;40.33;;;;;;;;;;6211096;28;20060;-65
2021/12/17 07:49:39;;;;;;;91.07;40.97;;;;;;;;;;6229861;28;20053;-65
2021/12/17 07:52:41;;;;;;;84.75;39.03;;;;;;;;;;6215283;28;20845;-66
2021/12/17 07:55:43;;;;;;;82.30;40.20;;;;;;;;;;6215712;28;20054;-65
2021/12/17 07:58:45;;;;;;;82.53;39.85;;;;;;;;;;6223981;28;20046;-65
2021/12/17 08:01:47;;;;;;;80.93;40.30;;;;;;;;;;6201581;28;20045;-65
2021/12/17 08:04:50;;;;;;;85.60;39.67;;;;;;;;;;6229494;28;20200;-65
2021/12/17 08:07:51;;;;;;;86.25;40.05;;;;;;;;;;6218031;28;20497;-65
2021/12/17 08:10:53;;;;;;;85.25;38.67;;;;;;;;;;6220092;28;20054;-65
2021/12/17 08:13:56;;;;;;;87.57;39.42;;;;;;;;;;6208565;28;20618;-65
2021/12/17 08:17:06;;;;;;;85.20;38.90;;;;;;;;;;6211081;28;20425;-65
2021/12/17 08:24:12;;;;;;;70.40;37.15;;;;;;;;;;6231592;28;20049;-65
2021/12/17 08:27:24;;;;;;;64.68;34.53;;;;;;;;;;6222683;28;20108;-65
2021/12/17 08:30:28;;;;;;;61.70;34.72;;;;;;;;;;6217565;28;20037;-65
2021/12/17 08:33:30;;;;;;;64.72;33.90;;;;;;;;;;6219909;28;20081;-65
2021/12/17 08:36:33;;;;;;;68.75;37.10;;;;;;;;;;6215095;28;20042;-65
2021/12/17 08:39:35;;;;;;;70.07;35.30;;;;;;;;;;6230099;28;20127;-65
2021/12/17 08:42:37;;;;;;;67.07;36.42;;;;;;;;;;6211395;28;20049;-65
2021/12/17 08:45:38;;;;;;;66.65;33.78;;;;;;;;;;6219862;28;20084;-65
2021/12/17 08:48:40;;;;;;;67.40;35.70;;;;;;;;;;6223172;28;20053;-65
2021/12/17 08:51:44;;;;;;;67.63;34.83;;;;;;;;;;6225440;28;20071;-65
2021/12/17 08:54:46;;;;;;;61.10;33.65;;;;;;;;;;6237808;28;20239;-65
2021/12/17 08:57:48;;;;;;;56.33;34.97;;;;;;;;;;6217180;28;20473;-66
2021/12/17 09:00:49;;;;;;;58.88;34.55;;;;;;;;;;6220693;28;20348;-66
2021/12/17 09:03:51;;;;;;;63.08;35.30;;;;;;;;;;6229950;28;20071;-65
2021/12/17 09:06:54;;;;;;;58.30;33.45;;;;;;;;;;6217340;28;20073;-65
2021/12/17 09:09:55;;;;;;;59.92;35.05;;;;;;;;;;6226878;28;20413;-65
2021/12/17 09:12:57;;;;;;;58.40;33.92;;;;;;;;;;6217886;28;20038;-65
2021/12/17 09:16:04;;;;;;;57.08;33.42;;;;;;;;;;6215956;28;20128;-65
2021/12/17 09:19:09;;;;;;;55.17;32.83;;;;;;;;;;6224494;28;20068;-65
2021/12/17 09:22:12;;;;;;;61.63;33.67;;;;;;;;;;6214401;28;20057;-65
2021/12/17 09:25:14;;;;;;;58.47;33.97;;;;;;;;;;6226520;28;20945;-65
2021/12/17 09:28:16;;;;;;;56.75;32.75;;;;;;;;;;6223066;28;20046;-65
2021/12/17 09:31:18;;;;;;;59.15;33.03;;;;;;;;;;6209800;28;20107;-66
2021/12/17 09:34:20;;;;;;;55.90;32.08;;;;;;;;;;6219631;28;20042;-65
2021/12/17 09:37:23;;;;;;;59.80;32.80;;;;;;;;;;6212927;28;20111;-66
2021/12/17 09:40:24;;;;;;;50.97;32.58;;;;;;;;;;6215270;28;20049;-66
2021/12/17 09:43:28;;;;;;;56.10;32.60;;;;;;;;;;6223173;28;20053;-65
2021/12/17 09:46:29;;;;;;;57.15;32.53;;;;;;;;;;6208323;28;20183;-65
2021/12/17 09:49:31;;;;;;;54.83;32.63;;;;;;;;;;6223360;28;20493;-65
2021/12/17 09:52:34;;;;;;;56.42;34.20;;;;;;;;;;6212292;28;20583;-66
2021/12/17 09:55:36;;;;;;;54.58;32.85;;;;;;;;;;6213208;28;20801;-65
2021/12/17 09:58:38;;;;;;;59.20;33.53;;;;;;;;;;6226621;28;20080;-65
2021/12/17 10:01:42;;;;;;;59.15;35.65;;;;;;;;;;6205565;28;20561;-65
2021/12/17 10:04:45;;;;;;;62.70;34.70;;;;;;;;;;6229143;28;20053;-66
2021/12/17 10:07:53;;;;;;;57.17;33.67;;;;;;;;;;6216587;28;20068;-66
2021/12/17 10:10:57;;;;;;;59.80;36.05;;;;;;;;;;6217842;28;20471;-65
2021/12/17 10:14:16;;;;;;;64.27;37.13;;;;;;;;;;6228335;28;20045;-66
2021/12/17 10:17:17;;;;;;;60.88;35.38;;;;;;;;;;6212708;28;20478;-66
2021/12/17 10:20:20;;;;;;;61.65;37.17;;;;;;;;;;6215170;28;20503;-66
2021/12/17 10:23:25;;;;;;;68.97;35.90;;;;;;;;;;6223098;28;20033;-65
2021/12/17 10:26:28;;;;;;;66.30;37.45;;;;;;;;;;6211737;28;20068;-65
2021/12/17 10:29:29;;;;;;;64.80;38.35;;;;;;;;;;6230497;28;20049;-66
2021/12/17 10:32:31;;;;;;;61.85;36.40;;;;;;;;;;6209957;28;20140;-66
2021/12/17 10:35:34;;;;;;;59.20;37.45;;;;;;;;;;6213984;28;20058;-66
2021/12/17 10:38:37;;;;;;;67.43;38.40;;;;;;;;;;6220473;28;20061;-66
2021/12/17 10:41:46;;;;;;;54.28;37.08;;;;;;;;;;6216537;28;20049;-66
2021/12/17 10:45:03;;;;;;;60.47;36.78;;;;;;;;;;6229349;28;20516;-66
2021/12/17 10:51:43;;;;;;;62.75;38.85;;;;;;;;;;6206640;28;21753;-66
2021/12/17 10:54:47;;;;;;;59.90;38.58;;;;;;;;;;6235991;28;20077;-66
2021/12/17 10:57:50;;;;;;;54.83;39.10;;;;;;;;;;6231947;28;20054;-67
2021/12/17 11:00:58;;;;;;;58.85;38.00;;;;;;;;;;6222954;28;20049;-66
2021/12/17 11:04:09;;;;;;;54.75;36.83;;;;;;;;;;6232354;28;20064;-66
2021/12/17 11:07:12;;;;;;;51.05;34.63;;;;;;;;;;6219503;28;20065;-66
2021/12/17 11:10:16;;;;;;;53.88;37.05;;;;;;;;;;6226138;28;20119;-67
2021/12/17 11:13:18;;;;;;;57.15;35.80;;;;;;;;;;6226793;28;20057;-66
2021/12/17 11:16:20;;;;;;;57.30;36.15;;;;;;;;;;6215147;28;20142;-66
2021/12/17 11:19:22;;;;;;;56.92;36.88;;;;;;;;;;6231194;28;20041;-66
2021/12/17 11:22:26;;;;;;;55.25;35.53;;;;;;;;;;6219148;28;20081;-66
2021/12/17 11:25:29;;;;;;;54.60;37.20;;;;;;;;;;6221663;28;20795;-66
2021/12/17 11:28:30;;;;;;;52.42;36.72;;;;;;;;;;6231348;28;20116;-66
2021/12/17 11:31:32;;;;;;;52.28;36.97;;;;;;;;;;6216260;28;20078;-66
2021/12/17 11:34:35;;;;;;;53.63;35.58;;;;;;;;;;6225470;28;20069;-66
2021/12/17 11:37:36;;;;;;;56.63;37.22;;;;;;;;;;6215266;28;20054;-65
2021/12/17 11:40:43;;;;;;;55.88;38.17;;;;;;;;;;6214605;28;20200;-66
2021/12/17 11:43:52;;;;;;;63.33;39.63;;;;;;;;;;6221352;28;20133;-66
2021/12/17 11:47:01;;;;;;;58.72;38.72;;;;;;;;;;6214242;28;20129;-66
2021/12/17 11:50:06;;;;;;;54.83;37.15;;;;;;;;;;6223815;28;20064;-66
2021/12/17 11:53:21;;;;;;;57.00;38.10;;;;;;;;;;6218317;28;20509;-66
2021/12/17 11:56:34;;;;;;;57.47;38.65;;;;;;;;;;6218604;28;20037;-66
2021/12/17 11:59:41;;;;;;;55.70;39.95;;;;;;;;;;6228888;28;20088;-66
2021/12/17 12:02:48;;;;;;;53.90;37.83;;;;;;;;;;6212205;28;20398;-66
2021/12/17 12:05:51;;;;;;;57.95;39.63;;;;;;;;;;6217934;28;20093;-66
2021/12/17 12:09:01;;;;;;;52.88;39.35;;;;;;;;;;6230108;28;20071;-65
2021/12/17 12:12:11;;;;;;;54.33;38.90;;;;;;;;;;6217192;28;20053;-66
2021/12/17 12:15:42;;;;;;;61.78;38.83;;;;;;;;;;6223854;28;20041;-66
2021/12/17 12:18:46;;;;;;;72.45;43.88;;;;;;;;;;6224571;28;20045;-66
2021/12/17 12:22:04;;;;;;;145.55;65.13;;;;;;;;;;6217316;28;20049;-64
2021/12/17 12:25:29;;;;;;;55.65;37.30;;;;;;;;;;6230049;28;20148;-65
2021/12/17 12:28:48;;;;;;;52.67;37.67;;;;;;;;;;6223433;28;20049;-65
2021/12/17 12:31:59;;;;;;;55.17;37.00;;;;;;;;;;6212818;28;20049;-65
2021/12/17 12:35:08;;;;;;;47.20;36.38;;;;;;;;;;6230114;28;20785;-65
2021/12/17 12:38:14;;;;;;;53.05;38.22;;;;;;;;;;6220265;28;20050;-66
2021/12/17 12:41:16;;;;;;;52.95;37.13;;;;;;;;;;6219637;28;20685;-66
2021/12/17 12:44:19;;;;;;;58.38;39.28;;;;;;;;;;6229382;28;20072;-66
2021/12/17 12:47:51;;;;;;;56.53;38.03;;;;;;;;;;6211676;28;20620;-66
2021/12/17 12:51:13;;;;;;;50.20;37.05;;;;;;;;;;6218022;28;20452;-66
2021/12/17 12:54:16;;;;;;;53.10;36.85;;;;;;;;;;6228013;28;20142;-67
2021/12/17 12:57:26;;;;;;;51.67;36.03;;;;;;;;;;6222252;28;20061;-67
2021/12/17 13:00:31;;;;;;;54.25;36.28;;;;;;;;;;6222424;28;20423;-67
2021/12/17 13:03:34;;;;;;;52.92;35.58;;;;;;;;;;6228111;28;20079;-66
2021/12/17 13:06:36;;;;;;;48.25;35.55;;;;;;;;;;6220853;28;20050;-67
2021/12/17 13:09:43;;;;;;;52.55;35.67;;;;;;;;;;6231067;28;20060;-67
2021/12/17 13:12:50;;;;;;;48.55;33.67;;;;;;;;;;6223488;28;20457;-66
2021/12/17 13:16:07;;;;;;;48.50;35.85;;;;;;;;;;6221104;28;20550;-67
2021/12/17 13:22:42;;;;;;;51.03;36.22;;;;;;;;;;6219834;28;20041;-66
2021/12/17 13:25:44;;;;;;;46.75;35.05;;;;;;;;;;6219258;28;20050;-67
2021/12/17 13:28:59;;;;;;;54.40;38.22;;;;;;;;;;6232996;28;20050;-66
2021/12/17 13:32:03;;;;;;;49.33;36.70;;;;;;;;;;6213844;28;20037;-67
2021/12/17 13:35:06;;;;;;;49.72;36.25;;;;;;;;;;6225206;28;20128;-67
2021/12/17 13:38:07;;;;;;;49.70;34.25;;;;;;;;;;6220406;28;20046;-67
2021/12/17 13:41:10;;;;;;;54.60;36.78;;;;;;;;;;6218996;28;20136;-66
2021/12/17 13:44:34;;;;;;;52.22;35.78;;;;;;;;;;6226420;28;20180;-66
2021/12/17 13:47:39;;;;;;;50.35;36.30;;;;;;;;;;6207845;28;20059;-66
2021/12/17 13:50:43;;;;;;;49.60;34.90;;;;;;;;;;6215715;28;20065;-67
2021/12/17 13:53:44;;;;;;;50.50;36.55;;;;;;;;;;6234109;28;20057;-67
2021/12/17 13:56:56;;;;;;;52.00;37.08;;;;;;;;;;6215959;28;20146;-67
2021/12/17 14:00:12;;;;;;;54.45;38.20;;;;;;;;;;6231256;28;20102;-67
2021/12/17 14:03:19;;;;;;;57.50;36.72;;;;;;;;;;6220314;28;20123;-67
2021/12/17 14:06:25;;;;;;;50.65;35.85;;;;;;;;;;6219395;28;20049;-67
2021/12/17 14:09:26;;;;;;;49.75;35.47;;;;;;;;;;6238209;28;20060;-67
2021/12/17 14:12:32;;;;;;;49.85;35.28;;;;;;;;;;6222323;28;20188;-67
2021/12/17 14:15:35;;;;;;;52.72;33.97;;;;;;;;;;6219200;28;20112;-67
2021/12/17 14:18:38;;;;;;;48.95;34.42;;;;;;;;;;6226069;28;20099;-67
2021/12/17 14:21:40;;;;;;;51.17;34.95;;;;;;;;;;6227124;28;20507;-67
2021/12/17 14:24:42;;;;;;;50.83;36.25;;;;;;;;;;6233632;28;20053;-67
2021/12/17 14:27:44;;;;;;;54.03;36.20;;;;;;;;;;6224451;28;20521;-67
2021/12/17 14:30:54;;;;;;;53.30;36.40;;;;;;;;;;6213668;28;20057;-66
2021/12/17 14:33:57;;;;;;;51.58;34.53;;;;;;;;;;6217709;28;20143;-67
2021/12/17 14:37:01;;;;;;;52.60;33.95;;;;;;;;;;6213563;28;20424;-66
2021/12/17 14:40:03;;;;;;;;;;;;;;;;;;6228348;28;20100;-67
2021/12/17 14:43:18;;;;;;;56.65;35.30;;;;;;;;;;6219471;28;20282;-67
2021/12/17 14:46:23;;;;;;;55.60;37.42;;;;;;;;;;6214935;28;20080;-66
2021/12/17 15:02:56;;;;;;;58.75;37.50;;;;;;;;;;6208179;28;20053;-66
2021/12/17 15:06:00;;;;;;;57.17;38.25;;;;;;;;;;6219668;28;20070;-67
2021/12/17 15:09:03;;;;;;;58.38;39.03;;;;;;;;;;6229066;28;20109;-66
2021/12/17 15:12:23;;;;;;;58.13;37.05;;;;;;;;;;6222160;28;20065;-66
2021/12/17 15:15:26;;;;;;;53.38;34.20;;;;;;;;;;6223880;28;20052;-65
2021/12/17 15:18:27;;;;;;;53.63;34.77;;;;;;;;;;6224385;28;20061;-65
2021/12/17 15:21:30;;;;;;;47.55;31.92;;;;;;;;;;6220730;28;20128;-66
2021/12/17 15:24:32;;;;;;;50.60;32.10;;;;;;;;;;6230717;28;20053;-65
2021/12/17 15:27:35;;;;;;;54.70;34.47;;;;;;;;;;6223007;28;20042;-65
2021/12/17 15:30:40;;;;;;;58.05;33.80;;;;;;;;;;6220120;28;20050;-70
2021/12/17 15:33:41;;;;;;;53.22;34.22;;;;;;;;;;6223159;28;20080;-66
2021/12/17 15:36:45;;;;;;;56.15;34.80;;;;;;;;;;6221247;28;20110;-65
2021/12/17 15:39:47;;;;;;;56.13;35.55;;;;;;;;;;6230255;28;20418;-65
2021/12/17 15:42:48;;;;;;;55.70;33.90;;;;;;;;;;6220193;28;20056;-65
2021/12/17 15:45:51;;;;;;;55.47;35.40;;;;;;;;;;6217519;28;20868;-66
2021/12/17 15:48:53;;;;;;;56.47;35.38;;;;;;;;;;6222569;28;20144;-65
2021/12/17 15:51:56;;;;;;;56.20;36.10;;;;;;;;;;6214515;28;20139;-66
2021/12/17 15:54:57;;;;;;;56.85;35.42;;;;;;;;;;6223499;28;20053;-65
2021/12/17 15:57:59;;;;;;;59.10;37.15;;;;;;;;;;6210277;28;20042;-66
2021/12/17 16:01:01;;;;;;;57.00;35.20;;;;;;;;;;6206742;28;20053;-65
2021/12/17 16:04:04;;;;;;;62.63;37.35;;;;;;;;;;6221644;28;20093;-66
2021/12/17 16:07:07;;;;;;;61.85;37.20;;;;;;;;;;6217533;28;20142;-65
2021/12/17 16:17:47;;;;;;;70.63;38.50;;;;;;;;;;6211289;28;20469;-66
2021/12/17 16:23:51;;;;;;;75.78;39.97;;;;;;;;;;6226681;28;20136;-65
2021/12/17 16:26:54;;;;;;;69.30;38.40;;;;;;;;;;6217312;28;20567;-65
2021/12/17 16:29:57;;;;;;;65.55;38.92;;;;;;;;;;6228495;28;20129;-66
2021/12/17 16:32:58;;;;;;;70.63;40.25;;;;;;;;;;6210103;28;20053;-65
2021/12/17 16:36:02;;;;;;;66.35;38.80;;;;;;;;;;6210531;28;20450;-65
2021/12/17 16:39:06;;;;;;;75.93;41.13;;;;;;;;;;6226460;28;20057;-65
2021/12/17 16:42:15;;;;;;;65.88;38.10;;;;;;;;;;6215373;28;20053;-66
2021/12/17 16:45:23;;;;;;;72.38;41.03;;;;;;;;;;6215350;28;20054;-66
2021/12/17 16:48:25;;;;;;;68.25;40.80;;;;;;;;;;6214777;28;20637;-65
2021/12/17 16:51:26;;;;;;;71.68;41.88;;;;;;;;;;6212098;28;20131;-65
2021/12/17 16:54:29;;;;;;;68.50;37.78;;;;;;;;;;6220875;28;20041;-65
2021/12/17 16:57:32;;;;;;;65.38;38.67;;;;;;;;;;6213888;28;20130;-65
2021/12/17 17:00:34;;;;;;;65.68;38.10;;;;;;;;;;6208221;28;20058;-65
2021/12/17 17:03:35;;;;;;;63.10;36.83;;;;;;;;;;6219737;28;20041;-65
2021/12/17 17:06:38;;;;;;;58.33;35.50;;;;;;;;;;6209645;28;20125;-65
2021/12/17 17:09:41;;;;;;;65.30;35.92;;;;;;;;;;6223984;28;20199;-65
2021/12/17 17:12:47;;;;;;;57.57;35.43;;;;;;;;;;6214053;28;20118;-65
2021/12/17 17:15:48;;;;;;;58.97;35.63;;;;;;;;;;6205931;28;20849;-65
2021/12/17 17:18:50;;;;;;;58.85;35.05;;;;;;;;;;6213316;28;20102;-66
2021/12/17 17:21:52;;;;;;;56.95;36.20;;;;;;;;;;6208579;28;20408;-66
2021/12/17 17:24:55;;;;;;;58.00;35.35;;;;;;;;;;6221779;28;20201;-65
2021/12/17 17:27:57;;;;;;;61.65;37.55;;;;;;;;;;6213121;28;20155;-66
2021/12/17 17:30:59;;;;;;;68.75;37.65;;;;;;;;;;6210305;28;20041;-65
2021/12/17 17:34:03;;;;;;;67.25;38.42;;;;;;;;;;6219563;28;20063;-66
2021/12/17 17:37:05;;;;;;;63.22;36.88;;;;;;;;;;6214749;28;20054;-65
2021/12/17 17:40:10;;;;;;;62.15;35.97;;;;;;;;;;6221082;28;20605;-65
2021/12/17 17:43:15;;;;;;;64.68;37.90;;;;;;;;;;6223466;28;20785;-65
2021/12/17 17:46:16;;;;;;;59.80;35.45;;;;;;;;;;6216011;28;20057;-66
2021/12/17 17:49:18;;;;;;;59.20;35.40;;;;;;;;;;6227315;28;20061;-66
2021/12/17 17:52:20;;;;;;;55.42;34.20;;;;;;;;;;6218988;28;20053;-65
2021/12/17 17:55:23;;;;;;;60.05;36.58;;;;;;;;;;6223007;28;20041;-65
2021/12/17 17:58:24;;;;;;;58.90;34.70;;;;;;;;;;6222875;28;20046;-65
2021/12/17 18:01:26;;;;;;;69.47;36.63;;;;;;;;;;6214051;28;20045;-66
2021/12/17 18:04:27;;;;;;;58.10;35.42;;;;;;;;;;6221208;28;20050;-65
2021/12/17 18:07:29;;;;;;;54.75;34.83;;;;;;;;;;6216014;28;20037;-65
2021/12/17 18:10:33;;;;;;;57.10;35.13;;;;;;;;;;6219557;28;20072;-65
2021/12/17 18:13:36;;;;;;;60.57;37.03;;;;;;;;;;6230201;28;20401;-65
2021/12/17 18:16:37;;;;;;;56.08;35.60;;;;;;;;;;6209145;28;20413;-65
2021/12/17 18:19:40;;;;;;;56.80;36.80;;;;;;;;;;6234408;28;21932;-65
2021/12/17 18:22:42;;;;;;;59.53;37.10;;;;;;;;;;6222331;28;20191;-66
2021/12/17 18:25:46;;;;;;;58.30;36.72;;;;;;;;;;6221610;28;20057;-65
2021/12/17 18:28:48;;;;;;;60.05;36.20;;;;;;;;;;6232431;28;20156;-65
2021/12/17 18:31:49;;;;;;;56.30;36.33;;;;;;;;;;6212254;28;20137;-65
2021/12/17 18:34:52;;;;;;;54.83;36.05;;;;;;;;;;6229640;28;20091;-65
2021/12/17 18:37:54;;;;;;;55.78;33.88;;;;;;;;;;6214556;28;20038;-66
2021/12/17 18:41:04;;;;;;;57.30;36.50;;;;;;;;;;6217191;28;20160;-65
2021/12/17 18:44:05;;;;;;;54.88;35.40;;;;;;;;;;6222243;28;20180;-66
2021/12/17 18:47:07;;;;;;;60.95;36.90;;;;;;;;;;6209696;28;20046;-65
2021/12/17 18:50:09;;;;;;;61.58;38.13;;;;;;;;;;6218267;28;20533;-66
2021/12/17 18:53:11;;;;;;;60.60;36.70;;;;;;;;;;6220162;28;21050;-65
2021/12/17 18:56:14;;;;;;;56.97;35.92;;;;;;;;;;6217973;28;20127;-66
2021/12/17 18:59:15;;;;;;;59.88;37.17;;;;;;;;;;6225866;28;20060;-65
2021/12/17 19:02:17;;;;;;;59.25;36.75;;;;;;;;;;6213537;28;20121;-65
2021/12/17 19:05:19;;;;;;;60.45;37.97;;;;;;;;;;6230848;28;20651;-65
2021/12/17 19:08:20;;;;;;;64.43;38.22;;;;;;;;;;6235470;28;20175;-66
2021/12/17 19:11:23;;;;;;;61.38;37.92;;;;;;;;;;6227395;28;20128;-65
2021/12/17 19:14:28;;;;;;;62.97;37.58;;;;;;;;;;6241401;28;20097;-66
2021/12/17 19:17:31;;;;;;;;;;;;;;;;;;6213796;28;20061;-65
2021/12/17 19:20:40;;;;;;;62.03;36.85;;;;;;;;;;6215380;28;20067;-65
2021/12/17 19:23:41;;;;;;;57.90;37.17;;;;;;;;;;6234693;28;20054;-65
2021/12/17 19:26:44;;;;;;;67.82;37.90;;;;;;;;;;6218732;28;20122;-65
2021/12/17 19:29:46;;;;;;;56.80;35.80;;;;;;;;;;6231341;28;20407;-65
2021/12/17 19:32:47;;;;;;;60.25;37.20;;;;;;;;;;6214037;28;20045;-65
2021/12/17 19:35:49;;;;;;;63.25;37.15;;;;;;;;;;6216591;28;20200;-65
2021/12/17 19:38:51;;;;;;;62.85;38.60;;;;;;;;;;6231369;28;20094;-64
2021/12/17 19:41:54;;;;;;;59.35;35.95;;;;;;;;;;6212132;28;20102;-65
2021/12/17 19:44:56;;;;;;;59.50;36.75;;;;;;;;;;6229736;28;20497;-65
2021/12/17 19:48:11;;;;;;;58.05;35.03;;;;;;;;;;6207437;28;20156;-65
2021/12/17 19:51:13;;;;;;;61.42;36.40;;;;;;;;;;6216310;28;20069;-64
2021/12/17 19:54:15;;;;;;;58.47;34.70;;;;;;;;;;6230511;28;20190;-64
2021/12/17 19:57:19;;;;;;;61.42;37.08;;;;;;;;;;6218625;28;20041;-64
2021/12/17 20:00:22;;;;;;;62.53;36.45;;;;;;;;;;6223840;28;20518;-64
2021/12/17 20:03:23;;;;;;;56.42;34.55;;;;;;;;;;6223035;28;20049;-64
2021/12/17 20:06:25;;;;;;;61.45;36.08;;;;;;;;;;6220170;28;20180;-64
2021/12/17 20:09:27;;;;;;;61.67;36.13;;;;;;;;;;6237384;28;20231;-65
2021/12/17 20:12:30;;;;;;;59.00;35.50;;;;;;;;;;6217325;28;20130;-64
2021/12/17 20:15:32;;;;;;;60.45;35.08;;;;;;;;;;6223200;28;20967;-64
2021/12/17 20:18:33;;;;;;;68.85;36.75;;;;;;;;;;6234026;28;20061;-64
2021/12/17 20:21:37;;;;;;;60.35;32.40;;;;;;;;;;6225675;28;20042;-64
2021/12/17 20:24:39;;;;;;;60.83;33.28;;;;;;;;;;6236151;28;20129;-65
2021/12/17 20:27:42;;;;;;;55.25;33.05;;;;;;;;;;6229037;28;20052;-65
2021/12/17 20:30:45;;;;;;;50.75;31.50;;;;;;;;;;6228928;28;20064;-65
2021/12/17 20:33:48;;;;;;;51.38;32.78;;;;;;;;;;6239094;28;20051;-64
2021/12/17 20:36:49;;;;;;;57.03;31.27;;;;;;;;;;6234519;28;20476;-64
2021/12/17 20:39:52;;;;;;;86.70;33.88;;;;;;;;;;6228454;28;20046;-64
2021/12/17 20:43:02;;;;;;;56.70;34.05;;;;;;;;;;6244067;28;20132;-64
2021/12/17 20:46:03;;;;;;;71.05;36.42;;;;;;;;;;6229407;28;20073;-64